createdAt,value
2023-04-23T00:00:02.169Z,0
2023-04-23T00:01:11.331Z,0
2023-04-23T00:02:20.612Z,0
2023-04-23T00:03:28.712Z,0
2023-04-23T00:04:37.038Z,0
2023-04-23T00:05:46.098Z,0
2023-04-23T00:06:55.279Z,0
2023-04-23T00:08:04.397Z,0
2023-04-23T00:09:13.621Z,0
2023-04-23T00:10:22.755Z,0
2023-04-23T00:11:31.980Z,0
2023-04-23T00:12:41.172Z,0
2023-04-23T00:13:50.257Z,0
2023-04-23T00:14:59.444Z,0
2023-04-23T00:16:08.616Z,0
2023-04-23T00:17:17.787Z,0
2023-04-23T00:18:27.048Z,0
2023-04-23T00:19:35.233Z,0
2023-04-23T00:20:44.347Z,0
2023-04-23T00:21:53.485Z,0
2023-04-23T00:23:02.656Z,0
2023-04-23T00:24:11.836Z,0
2023-04-23T00:25:21.110Z,0
2023-04-23T00:26:30.294Z,0
2023-04-23T00:27:38.368Z,0
2023-04-23T00:28:46.560Z,0
2023-04-23T00:29:54.767Z,0
2023-04-23T00:31:02.946Z,0
2023-04-23T00:32:12.107Z,0
2023-04-23T00:33:21.296Z,0
2023-04-23T00:34:30.548Z,0
2023-04-23T00:35:39.711Z,0
2023-04-23T00:36:48.787Z,0
2023-04-23T00:37:58.040Z,0
2023-04-23T00:39:07.142Z,0
2023-04-23T00:40:16.312Z,0
2023-04-23T00:41:25.510Z,0
2023-04-23T00:42:34.811Z,0
2023-04-23T00:43:43.850Z,0
2023-04-23T00:44:53.112Z,0
2023-04-23T00:46:01.196Z,0
2023-04-23T00:47:10.371Z,0
2023-04-23T00:48:19.535Z,0
2023-04-23T00:49:28.713Z,0
2023-04-23T00:50:37.887Z,0
2023-04-23T00:51:47.074Z,0
2023-04-23T00:52:56.231Z,0
2023-04-23T00:54:05.448Z,0
2023-04-23T00:55:13.608Z,0
2023-04-23T00:56:21.780Z,0
2023-04-23T00:57:30.952Z,0
2023-04-23T00:58:40.205Z,0
2023-04-23T00:59:49.393Z,0
2023-04-23T01:00:57.508Z,0
2023-04-23T01:02:05.694Z,0
2023-04-23T01:03:14.866Z,0
2023-04-23T01:04:24.037Z,0
2023-04-23T01:05:33.375Z,0
2023-04-23T01:06:42.376Z,0
2023-04-23T01:07:51.681Z,0
2023-04-23T01:09:00.742Z,0
2023-04-23T01:10:09.894Z,0
2023-04-23T01:11:19.060Z,0
2023-04-23T01:12:28.257Z,0
2023-04-23T01:13:37.419Z,0
2023-04-23T01:14:46.729Z,0
2023-04-23T01:15:55.768Z,0
2023-04-23T01:17:03.950Z,0
2023-04-23T01:18:13.125Z,0
2023-04-23T01:19:22.297Z,0
2023-04-23T01:20:31.524Z,0
2023-04-23T01:21:40.702Z,0
2023-04-23T01:22:49.807Z,0
2023-04-23T01:23:58.976Z,0
2023-04-23T01:25:07.253Z,0
2023-04-23T01:26:15.369Z,0
2023-04-23T01:27:24.576Z,0
2023-04-23T01:28:33.842Z,0
2023-04-23T01:29:42.879Z,0
2023-04-23T01:30:52.045Z,0
2023-04-23T01:32:01.266Z,0
2023-04-23T01:33:10.392Z,0
2023-04-23T01:34:19.570Z,0
2023-04-23T01:35:28.817Z,0
2023-04-23T01:36:37.973Z,0
2023-04-23T01:37:47.182Z,0
2023-04-23T01:38:56.260Z,0
2023-04-23T01:40:05.445Z,0
2023-04-23T01:41:13.619Z,0
2023-04-23T01:42:22.817Z,0
2023-04-23T01:43:31.991Z,0
2023-04-23T01:44:41.389Z,0
2023-04-23T01:45:50.309Z,0
2023-04-23T01:46:59.553Z,0
2023-04-23T01:48:08.671Z,0
2023-04-23T01:49:16.839Z,0
2023-04-23T01:50:25.028Z,0
2023-04-23T01:51:34.239Z,0
2023-04-23T01:52:43.441Z,0
2023-04-23T01:53:52.621Z,0
2023-04-23T01:55:01.728Z,0
2023-04-23T01:56:10.928Z,0
2023-04-23T01:57:20.123Z,0
2023-04-23T01:58:29.234Z,0
2023-04-23T01:59:38.427Z,0
2023-04-23T02:00:47.617Z,0
2023-04-23T02:01:56.763Z,0
2023-04-23T02:03:05.940Z,0
2023-04-23T02:04:15.106Z,0
2023-04-23T02:05:23.422Z,0
2023-04-23T02:06:32.467Z,0
2023-04-23T02:07:41.662Z,0
2023-04-23T02:08:50.815Z,0
2023-04-23T02:10:00.071Z,0
2023-04-23T02:11:09.147Z,0
2023-04-23T02:12:18.328Z,0
2023-04-23T02:13:26.512Z,0
2023-04-23T02:14:34.707Z,0
2023-04-23T02:15:42.891Z,0
2023-04-23T02:16:51.092Z,0
2023-04-23T02:18:00.277Z,0
2023-04-23T02:19:09.448Z,0
2023-04-23T02:20:18.617Z,0
2023-04-23T02:21:27.782Z,0
2023-04-23T02:22:36.952Z,0
2023-04-23T02:23:46.147Z,0
2023-04-23T02:24:55.297Z,0
2023-04-23T02:26:04.556Z,0
2023-04-23T02:27:13.670Z,0
2023-04-23T02:28:22.858Z,0
2023-04-23T02:29:31.991Z,0
2023-04-23T02:30:41.164Z,0
2023-04-23T02:31:49.379Z,0
2023-04-23T02:32:58.516Z,0
2023-04-23T02:34:07.728Z,0
2023-04-23T02:35:16.961Z,0
2023-04-23T02:36:26.038Z,0
2023-04-23T02:37:35.266Z,0
2023-04-23T02:38:44.380Z,0
2023-04-23T02:39:52.586Z,0
2023-04-23T02:41:00.805Z,0
2023-04-23T02:42:09.949Z,0
2023-04-23T02:43:18.140Z,0
2023-04-23T02:44:26.354Z,0
2023-04-23T02:46:44.656Z,0
2023-04-23T02:47:53.841Z,0
2023-04-23T02:49:03.060Z,0
2023-04-23T02:51:21.356Z,0
2023-04-23T02:52:30.629Z,0
2023-04-23T02:53:39.767Z,0
2023-04-23T02:54:48.877Z,0
2023-04-23T02:55:58.052Z,0
2023-04-23T02:57:07.220Z,0
2023-04-23T02:58:15.422Z,0
2023-04-23T02:59:23.622Z,0
2023-04-23T03:00:32.838Z,0
2023-04-23T03:01:41.944Z,0
2023-04-23T03:02:51.131Z,0
2023-04-23T03:04:00.300Z,0
2023-04-23T03:05:09.522Z,0
2023-04-23T03:06:18.655Z,0
2023-04-23T03:07:27.807Z,0
2023-04-23T03:08:37.110Z,0
2023-04-23T03:09:46.161Z,0
2023-04-23T03:10:54.332Z,0
2023-04-23T03:12:02.565Z,0
2023-04-23T03:13:11.703Z,0
2023-04-23T03:14:20.876Z,0
2023-04-23T03:15:30.072Z,0
2023-04-23T03:17:48.395Z,0
2023-04-23T03:18:57.567Z,0
2023-04-23T03:20:06.744Z,0
2023-04-23T03:21:15.904Z,0
2023-04-23T03:22:25.083Z,0
2023-04-23T03:23:34.272Z,0
2023-04-23T03:24:43.555Z,0
2023-04-23T03:25:52.787Z,0
2023-04-23T03:27:00.821Z,0
2023-04-23T03:28:10.037Z,0
2023-04-23T03:29:19.186Z,0
2023-04-23T03:30:28.349Z,0
2023-04-23T03:31:37.477Z,0
2023-04-23T03:32:46.658Z,0
2023-04-23T03:33:55.827Z,0
2023-04-23T03:35:04.997Z,0
2023-04-23T03:36:13.220Z,0
2023-04-23T03:37:21.381Z,0
2023-04-23T03:38:29.581Z,0
2023-04-23T03:39:37.757Z,0
2023-04-23T03:40:46.929Z,0
2023-04-23T03:41:56.108Z,0
2023-04-23T03:43:05.289Z,0
2023-04-23T03:44:13.479Z,0
2023-04-23T03:45:22.668Z,0
2023-04-23T03:46:31.877Z,0
2023-04-23T03:47:40.999Z,0
2023-04-23T03:48:50.164Z,0
2023-04-23T03:49:59.406Z,0
2023-04-23T03:51:08.513Z,0
2023-04-23T03:52:17.679Z,0
2023-04-23T03:53:26.937Z,0
2023-04-23T03:54:36.108Z,0
2023-04-23T03:55:45.318Z,0
2023-04-23T03:56:54.417Z,0
2023-04-23T03:58:03.593Z,0
2023-04-23T03:59:11.733Z,0
2023-04-23T04:00:20.911Z,0
2023-04-23T04:01:30.087Z,0
2023-04-23T04:02:38.283Z,0
2023-04-23T04:03:46.462Z,0
2023-04-23T04:04:55.677Z,0
2023-04-23T04:06:04.805Z,0
2023-04-23T04:07:14.009Z,0
2023-04-23T04:08:23.168Z,0
2023-04-23T04:09:32.370Z,0
2023-04-23T04:10:41.505Z,0
2023-04-23T04:11:50.668Z,0
2023-04-23T04:12:59.895Z,0
2023-04-23T04:14:09.019Z,0
2023-04-23T04:15:18.214Z,0
2023-04-23T04:16:27.381Z,0
2023-04-23T04:17:36.541Z,0
2023-04-23T04:18:44.724Z,0
2023-04-23T04:19:53.914Z,0
2023-04-23T04:21:03.068Z,0
2023-04-23T04:22:12.240Z,5
2023-04-23T04:23:21.417Z,5
2023-04-23T04:24:30.648Z,5
2023-04-23T04:25:39.769Z,5
2023-04-23T04:26:48.937Z,5
2023-04-23T04:27:57.155Z,5
2023-04-23T04:29:05.476Z,5
2023-04-23T04:30:13.519Z,5
2023-04-23T04:31:21.719Z,5
2023-04-23T04:32:30.974Z,5
2023-04-23T04:33:39.075Z,5
2023-04-23T04:34:47.244Z,5
2023-04-23T04:35:56.444Z,5
2023-04-23T04:37:05.642Z,11
2023-04-23T04:38:14.768Z,11
2023-04-23T04:39:23.946Z,11
2023-04-23T04:40:33.109Z,11
2023-04-23T04:41:42.284Z,11
2023-04-23T04:42:51.506Z,11
2023-04-23T04:44:00.628Z,11
2023-04-23T04:45:09.915Z,11
2023-04-23T04:46:18.970Z,11
2023-04-23T04:47:28.157Z,11
2023-04-23T04:48:37.318Z,11
2023-04-23T04:49:45.507Z,16
2023-04-23T04:50:54.692Z,16
2023-04-23T04:52:03.853Z,16
2023-04-23T04:53:13.027Z,16
2023-04-23T04:54:22.202Z,16
2023-04-23T04:55:31.373Z,22
2023-04-23T04:56:40.547Z,22
2023-04-23T04:57:48.737Z,22
2023-04-23T04:58:56.930Z,22
2023-04-23T05:00:06.156Z,22
2023-04-23T05:01:15.290Z,22
2023-04-23T05:02:24.636Z,28
2023-04-23T05:03:33.669Z,28
2023-04-23T05:04:42.884Z,28
2023-04-23T05:05:51.966Z,28
2023-04-23T05:07:01.148Z,28
2023-04-23T05:08:10.359Z,28
2023-04-23T05:09:19.558Z,28
2023-04-23T05:10:28.654Z,28
2023-04-23T05:11:37.837Z,28
2023-04-23T05:12:46.997Z,28
2023-04-23T05:13:55.188Z,28
2023-04-23T05:15:04.388Z,28
2023-04-23T05:16:13.530Z,33
2023-04-23T05:17:22.698Z,33
2023-04-23T05:18:31.902Z,33
2023-04-23T05:19:41.041Z,39
2023-04-23T05:20:50.302Z,39
2023-04-23T05:21:58.433Z,45
2023-04-23T05:23:06.605Z,45
2023-04-23T05:24:14.815Z,50
2023-04-23T05:25:23.047Z,50
2023-04-23T05:26:32.174Z,50
2023-04-23T05:27:41.327Z,50
2023-04-23T05:28:50.545Z,50
2023-04-23T05:29:59.684Z,56
2023-04-23T05:31:08.949Z,56
2023-04-23T05:32:18.037Z,56
2023-04-23T05:33:27.193Z,61
2023-04-23T05:34:36.369Z,67
2023-04-23T05:35:45.640Z,67
2023-04-23T05:36:54.766Z,61
2023-04-23T05:38:03.966Z,61
2023-04-23T05:39:13.063Z,61
2023-04-23T05:40:21.242Z,61
2023-04-23T05:41:30.451Z,61
2023-04-23T05:42:39.611Z,61
2023-04-23T05:43:48.853Z,67
2023-04-23T05:44:58.019Z,67
2023-04-23T05:46:07.116Z,67
2023-04-23T05:47:16.353Z,67
2023-04-23T05:48:24.550Z,73
2023-04-23T05:49:33.662Z,78
2023-04-23T05:50:41.836Z,78
2023-04-23T05:51:51.005Z,84
2023-04-23T05:53:00.168Z,112
2023-04-23T05:54:09.369Z,112
2023-04-23T05:55:18.617Z,112
2023-04-23T05:56:27.685Z,118
2023-04-23T05:57:36.872Z,106
2023-04-23T05:58:46.105Z,101
2023-04-23T05:59:55.233Z,101
2023-04-23T06:01:04.451Z,112
2023-04-23T06:02:13.543Z,118
2023-04-23T06:03:22.721Z,118
2023-04-23T06:04:31.987Z,106
2023-04-23T06:05:40.179Z,106
2023-04-23T06:06:49.363Z,112
2023-04-23T06:07:58.433Z,123
2023-04-23T06:09:07.597Z,129
2023-04-23T06:10:16.784Z,135
2023-04-23T06:11:26.064Z,135
2023-04-23T06:12:34.161Z,135
2023-04-23T06:13:42.337Z,135
2023-04-23T06:14:50.642Z,135
2023-04-23T06:15:58.800Z,140
2023-04-23T06:17:07.976Z,140
2023-04-23T06:18:17.103Z,140
2023-04-23T06:19:26.290Z,140
2023-04-23T06:20:35.408Z,140
2023-04-23T06:21:44.591Z,146
2023-04-23T06:22:53.757Z,146
2023-04-23T06:24:03.014Z,146
2023-04-23T06:25:12.137Z,146
2023-04-23T06:26:21.260Z,146
2023-04-23T06:27:30.496Z,146
2023-04-23T06:28:39.684Z,151
2023-04-23T06:29:48.802Z,151
2023-04-23T06:30:56.963Z,151
2023-04-23T06:32:06.224Z,151
2023-04-23T06:33:15.352Z,151
2023-04-23T06:34:24.627Z,157
2023-04-23T06:35:33.700Z,157
2023-04-23T06:36:42.943Z,157
2023-04-23T06:37:52.172Z,157
2023-04-23T06:39:00.336Z,163
2023-04-23T06:40:09.360Z,157
2023-04-23T06:41:17.561Z,157
2023-04-23T06:42:25.841Z,157
2023-04-23T06:43:33.945Z,163
2023-04-23T06:44:43.104Z,163
2023-04-23T06:45:52.277Z,163
2023-04-23T06:47:01.461Z,168
2023-04-23T06:48:10.740Z,168
2023-04-23T06:49:19.821Z,174
2023-04-23T06:50:29.016Z,174
2023-04-23T06:51:38.171Z,180
2023-04-23T06:52:47.346Z,185
2023-04-23T06:53:56.492Z,191
2023-04-23T06:55:05.717Z,174
2023-04-23T06:56:14.933Z,208
2023-04-23T06:57:24.027Z,213
2023-04-23T06:58:32.252Z,219
2023-04-23T06:59:41.448Z,236
2023-04-23T07:00:50.542Z,247
2023-04-23T07:01:59.699Z,247
2023-04-23T07:03:08.893Z,258
2023-04-23T07:04:18.069Z,264
2023-04-23T07:05:27.311Z,275
2023-04-23T07:06:35.420Z,275
2023-04-23T07:07:43.623Z,225
2023-04-23T07:08:51.835Z,213
2023-04-23T07:10:00.015Z,219
2023-04-23T07:11:09.303Z,208
2023-04-23T07:12:18.441Z,191
2023-04-23T07:13:27.517Z,180
2023-04-23T07:14:36.692Z,180
2023-04-23T07:16:55.074Z,185
2023-04-23T07:18:04.287Z,213
2023-04-23T07:19:13.392Z,247
2023-04-23T07:20:22.644Z,196
2023-04-23T07:21:31.795Z,196
2023-04-23T07:22:40.916Z,202
2023-04-23T07:23:50.106Z,219
2023-04-23T07:24:58.318Z,213
2023-04-23T07:26:07.582Z,236
2023-04-23T07:27:16.599Z,202
2023-04-23T07:28:25.794Z,247
2023-04-23T07:29:35.005Z,225
2023-04-23T07:30:44.124Z,213
2023-04-23T07:31:53.368Z,247
2023-04-23T07:33:02.514Z,219
2023-04-23T07:34:10.672Z,258
2023-04-23T07:35:18.855Z,230
2023-04-23T07:36:27.100Z,219
2023-04-23T07:37:35.323Z,208
2023-04-23T07:38:44.497Z,196
2023-04-23T07:39:53.589Z,185
2023-04-23T07:41:02.911Z,180
2023-04-23T07:42:12.063Z,174
2023-04-23T07:43:21.105Z,180
2023-04-23T07:44:30.317Z,180
2023-04-23T07:45:39.574Z,185
2023-04-23T07:46:48.618Z,191
2023-04-23T07:47:57.788Z,185
2023-04-23T07:49:07.004Z,185
2023-04-23T07:50:16.246Z,191
2023-04-23T07:51:25.354Z,191
2023-04-23T07:52:33.510Z,196
2023-04-23T07:53:42.741Z,196
2023-04-23T07:54:51.837Z,202
2023-04-23T07:56:01.069Z,202
2023-04-23T07:57:10.189Z,202
2023-04-23T07:58:19.360Z,202
2023-04-23T07:59:28.626Z,202
2023-04-23T08:00:36.738Z,202
2023-04-23T08:01:44.907Z,202
2023-04-23T08:02:54.084Z,196
2023-04-23T08:04:03.327Z,185
2023-04-23T08:05:11.449Z,180
2023-04-23T08:06:19.713Z,168
2023-04-23T08:07:28.864Z,157
2023-04-23T08:08:37.979Z,146
2023-04-23T08:09:47.176Z,146
2023-04-23T08:10:56.332Z,146
2023-04-23T08:12:05.507Z,146
2023-04-23T08:13:14.668Z,157
2023-04-23T08:14:23.846Z,168
2023-04-23T08:15:33.016Z,185
2023-04-23T08:16:42.220Z,208
2023-04-23T08:17:51.357Z,213
2023-04-23T08:19:00.525Z,219
2023-04-23T08:20:09.753Z,225
2023-04-23T08:21:18.026Z,230
2023-04-23T08:22:27.182Z,241
2023-04-23T08:23:36.286Z,286
2023-04-23T08:24:45.401Z,298
2023-04-23T08:27:03.840Z,213
2023-04-23T08:28:12.960Z,241
2023-04-23T08:29:22.141Z,202
2023-04-23T08:30:30.337Z,241
2023-04-23T08:31:38.566Z,225
2023-04-23T08:32:46.712Z,196
2023-04-23T08:33:54.866Z,225
2023-04-23T08:35:04.125Z,202
2023-04-23T08:36:13.347Z,213
2023-04-23T08:37:22.454Z,219
2023-04-23T08:38:31.547Z,174
2023-04-23T08:39:40.846Z,174
2023-04-23T08:40:50.037Z,157
2023-04-23T08:41:59.122Z,174
2023-04-23T08:43:08.295Z,230
2023-04-23T08:44:17.488Z,174
2023-04-23T08:45:26.593Z,185
2023-04-23T08:46:35.763Z,185
2023-04-23T08:47:45.003Z,185
2023-04-23T08:48:53.188Z,196
2023-04-23T08:50:02.289Z,213
2023-04-23T08:51:11.468Z,258
2023-04-23T08:52:20.648Z,163
2023-04-23T08:53:29.922Z,168
2023-04-23T08:54:39.113Z,185
2023-04-23T08:55:48.191Z,191
2023-04-23T08:56:56.340Z,196
2023-04-23T08:58:04.541Z,230
2023-04-23T08:59:12.736Z,236
2023-04-23T09:00:21.065Z,236
2023-04-23T09:01:30.176Z,236
2023-04-23T09:02:39.277Z,236
2023-04-23T09:03:48.473Z,236
2023-04-23T09:04:57.603Z,241
2023-04-23T09:06:06.820Z,236
2023-04-23T09:07:15.947Z,236
2023-04-23T09:08:25.199Z,236
2023-04-23T09:09:34.422Z,247
2023-04-23T09:10:43.482Z,247
2023-04-23T09:11:52.669Z,202
2023-04-23T09:13:01.885Z,247
2023-04-23T09:14:10.984Z,236
2023-04-23T09:15:19.295Z,247
2023-04-23T09:16:28.481Z,247
2023-04-23T09:17:37.535Z,247
2023-04-23T09:18:46.684Z,253
2023-04-23T09:21:05.030Z,258
2023-04-23T09:22:14.212Z,253
2023-04-23T09:23:23.420Z,174
2023-04-23T09:24:31.632Z,264
2023-04-23T09:25:39.847Z,264
2023-04-23T09:26:49.128Z,151
2023-04-23T09:27:57.284Z,151
2023-04-23T09:29:06.347Z,281
2023-04-23T09:30:14.587Z,281
2023-04-23T09:31:23.723Z,292
2023-04-23T09:32:32.829Z,292
2023-04-23T09:33:42.043Z,292
2023-04-23T09:34:51.170Z,303
2023-04-23T09:36:00.350Z,315
2023-04-23T09:37:09.518Z,331
2023-04-23T09:38:18.684Z,331
2023-04-23T09:39:27.969Z,337
2023-04-23T09:40:37.035Z,360
2023-04-23T09:41:46.202Z,382
2023-04-23T09:42:55.404Z,382
2023-04-23T09:44:04.644Z,371
2023-04-23T09:45:12.728Z,376
2023-04-23T09:46:21.912Z,388
2023-04-23T09:47:31.070Z,376
2023-04-23T09:48:40.253Z,382
2023-04-23T09:49:49.533Z,270
2023-04-23T09:50:58.599Z,241
2023-04-23T09:52:07.929Z,241
2023-04-23T09:53:16.964Z,270
2023-04-23T09:54:26.133Z,326
2023-04-23T09:55:35.291Z,298
2023-04-23T09:56:44.568Z,253
2023-04-23T09:57:53.748Z,298
2023-04-23T09:59:02.820Z,258
2023-04-23T10:00:11.154Z,241
2023-04-23T10:01:20.157Z,241
2023-04-23T10:02:28.350Z,253
2023-04-23T10:03:36.574Z,264
2023-04-23T10:04:45.755Z,264
2023-04-23T10:05:54.887Z,405
2023-04-23T10:07:04.060Z,219
2023-04-23T10:08:13.232Z,219
2023-04-23T10:09:22.409Z,399
2023-04-23T10:10:31.581Z,388
2023-04-23T10:11:39.811Z,298
2023-04-23T10:12:47.950Z,270
2023-04-23T10:13:57.130Z,219
2023-04-23T10:15:06.295Z,213
2023-04-23T10:16:15.499Z,405
2023-04-23T10:17:24.649Z,258
2023-04-23T10:18:33.815Z,264
2023-04-23T10:19:43.122Z,270
2023-04-23T10:20:52.167Z,281
2023-04-23T10:22:01.331Z,292
2023-04-23T10:23:10.653Z,320
2023-04-23T10:24:19.686Z,298
2023-04-23T10:25:28.914Z,230
2023-04-23T10:26:38.055Z,213
2023-04-23T10:27:46.215Z,219
2023-04-23T10:28:55.383Z,247
2023-04-23T10:30:04.589Z,275
2023-04-23T10:31:13.757Z,270
2023-04-23T10:32:22.996Z,264
2023-04-23T10:33:32.117Z,275
2023-04-23T10:34:41.263Z,275
2023-04-23T10:35:49.458Z,270
2023-04-23T10:36:57.687Z,258
2023-04-23T10:38:06.828Z,315
2023-04-23T10:39:16.040Z,264
2023-04-23T10:40:24.197Z,309
2023-04-23T10:41:32.471Z,281
2023-04-23T10:42:41.561Z,236
2023-04-23T10:43:50.721Z,230
2023-04-23T10:44:59.932Z,230
2023-04-23T10:46:09.069Z,236
2023-04-23T10:47:18.275Z,236
2023-04-23T10:49:36.765Z,253
2023-04-23T10:50:45.873Z,253
2023-04-23T10:51:54.942Z,247
2023-04-23T10:53:04.141Z,253
2023-04-23T10:54:13.266Z,264
2023-04-23T10:55:22.446Z,286
2023-04-23T10:56:30.628Z,382
2023-04-23T10:57:39.849Z,466
2023-04-23T10:58:48.967Z,326
2023-04-23T10:59:58.179Z,438
2023-04-23T11:01:07.436Z,337
2023-04-23T11:02:16.508Z,331
2023-04-23T11:03:25.762Z,365
2023-04-23T11:04:34.881Z,360
2023-04-23T11:05:43.130Z,326
2023-04-23T11:06:51.271Z,427
2023-04-23T11:08:00.393Z,253
2023-04-23T11:09:09.553Z,258
2023-04-23T11:10:18.734Z,270
2023-04-23T11:11:26.933Z,270
2023-04-23T11:12:35.149Z,253
2023-04-23T11:13:44.279Z,241
2023-04-23T11:14:53.485Z,230
2023-04-23T11:16:02.625Z,213
2023-04-23T11:17:11.806Z,208
2023-04-23T11:18:20.990Z,202
2023-04-23T11:19:30.271Z,208
2023-04-23T11:20:39.421Z,213
2023-04-23T11:21:48.489Z,230
2023-04-23T11:22:57.680Z,253
2023-04-23T11:24:06.831Z,275
2023-04-23T11:25:16.005Z,286
2023-04-23T11:26:24.260Z,292
2023-04-23T11:28:42.555Z,331
2023-04-23T11:29:51.847Z,360
2023-04-23T11:31:01.054Z,348
2023-04-23T11:32:10.080Z,478
2023-04-23T11:33:19.243Z,393
2023-04-23T11:34:28.430Z,478
2023-04-23T11:35:37.597Z,511
2023-04-23T11:36:45.796Z,489
2023-04-23T11:37:54.011Z,399
2023-04-23T11:39:03.161Z,371
2023-04-23T11:40:11.532Z,410
2023-04-23T11:41:19.585Z,500
2023-04-23T11:42:28.832Z,511
2023-04-23T11:43:37.885Z,478
2023-04-23T11:44:47.037Z,393
2023-04-23T11:45:56.230Z,343
2023-04-23T11:47:05.382Z,298
2023-04-23T11:48:14.548Z,286
2023-04-23T11:49:23.730Z,292
2023-04-23T11:50:32.930Z,303
2023-04-23T11:52:51.246Z,303
2023-04-23T11:54:00.464Z,303
2023-04-23T11:55:09.782Z,292
2023-04-23T11:56:17.777Z,298
2023-04-23T11:57:26.941Z,309
2023-04-23T11:58:36.156Z,326
2023-04-23T11:59:45.293Z,326
2023-04-23T12:00:54.484Z,337
2023-04-23T12:02:03.726Z,360
2023-04-23T12:03:12.811Z,433
2023-04-23T12:04:21.979Z,455
2023-04-23T12:05:30.166Z,450
2023-04-23T12:06:38.350Z,433
2023-04-23T12:07:47.544Z,427
2023-04-23T12:10:05.013Z,438
2023-04-23T12:11:13.091Z,405
2023-04-23T12:12:21.274Z,405
2023-04-23T12:13:30.450Z,371
2023-04-23T12:14:39.679Z,354
2023-04-23T12:15:48.792Z,343
2023-04-23T12:18:07.128Z,331
2023-04-23T12:19:16.306Z,331
2023-04-23T12:20:25.478Z,326
2023-04-23T12:21:34.654Z,309
2023-04-23T12:22:43.833Z,292
2023-04-23T12:23:52.998Z,281
2023-04-23T12:25:02.179Z,281
2023-04-23T12:26:11.517Z,281
2023-04-23T12:27:19.638Z,298
2023-04-23T12:28:28.801Z,326
2023-04-23T12:29:37.963Z,343
2023-04-23T12:30:47.096Z,360
2023-04-23T12:31:56.326Z,371
2023-04-23T12:33:05.435Z,388
2023-04-23T12:34:14.641Z,405
2023-04-23T12:35:23.852Z,416
2023-04-23T12:36:32.004Z,405
2023-04-23T12:37:40.181Z,388
2023-04-23T12:38:49.311Z,371
2023-04-23T12:41:07.638Z,371
2023-04-23T12:42:15.972Z,365
2023-04-23T12:43:24.034Z,365
2023-04-23T12:44:33.179Z,365
2023-04-23T12:45:42.365Z,371
2023-04-23T12:46:51.558Z,382
2023-04-23T12:48:00.706Z,382
2023-04-23T12:49:09.882Z,382
2023-04-23T12:50:19.211Z,376
2023-04-23T12:51:28.327Z,376
2023-04-23T12:52:37.409Z,388
2023-04-23T12:53:46.641Z,405
2023-04-23T12:54:55.796Z,410
2023-04-23T12:56:04.915Z,399
2023-04-23T12:57:14.090Z,405
2023-04-23T12:58:22.302Z,393
2023-04-23T12:59:31.570Z,393
2023-04-23T13:00:40.615Z,382
2023-04-23T13:01:49.782Z,382
2023-04-23T13:02:58.980Z,376
2023-04-23T13:04:08.156Z,365
2023-04-23T13:05:17.310Z,360
2023-04-23T13:06:25.497Z,343
2023-04-23T13:07:33.759Z,320
2023-04-23T13:08:42.854Z,298
2023-04-23T13:09:51.062Z,275
2023-04-23T13:10:59.302Z,258
2023-04-23T13:12:08.409Z,241
2023-04-23T13:13:17.582Z,225
2023-04-23T13:14:26.777Z,191
2023-04-23T13:15:35.957Z,168
2023-04-23T13:16:45.207Z,140
2023-04-23T13:17:54.307Z,118
2023-04-23T13:19:03.488Z,101
2023-04-23T13:20:12.745Z,90
2023-04-23T13:21:21.788Z,90
2023-04-23T13:22:31.077Z,90
2023-04-23T13:23:40.144Z,101
2023-04-23T13:24:49.305Z,123
2023-04-23T13:25:57.504Z,151
2023-04-23T13:27:06.711Z,196
2023-04-23T13:28:15.858Z,247
2023-04-23T13:29:24.999Z,315
2023-04-23T13:30:34.176Z,382
2023-04-23T13:31:43.367Z,590
2023-04-23T13:32:52.544Z,579
2023-04-23T13:34:00.740Z,720
2023-04-23T13:35:08.915Z,742
2023-04-23T13:37:26.290Z,793
2023-04-23T13:38:34.537Z,916
2023-04-23T13:40:51.923Z,804
2023-04-23T13:42:01.087Z,826
2023-04-23T13:43:10.225Z,900
2023-04-23T13:44:19.442Z,939
2023-04-23T13:45:28.681Z,967
2023-04-23T13:46:37.797Z,1175
2023-04-23T13:47:46.884Z,1518
2023-04-23T13:48:56.143Z,1445
2023-04-23T13:50:05.213Z,1243
2023-04-23T13:51:14.384Z,1175
2023-04-23T13:52:23.587Z,1147
2023-04-23T13:53:32.735Z,1192
2023-04-23T13:54:40.910Z,1316
2023-04-23T13:55:50.103Z,1220
2023-04-23T13:56:59.268Z,1237
2023-04-23T13:58:08.456Z,1327
2023-04-23T13:59:17.607Z,1237
2023-04-23T14:00:26.772Z,1125
2023-04-23T14:01:35.945Z,1125
2023-04-23T14:02:45.137Z,866
2023-04-23T14:03:53.333Z,607
2023-04-23T14:05:01.498Z,635
2023-04-23T14:06:10.690Z,590
2023-04-23T14:07:18.928Z,511
2023-04-23T14:08:27.053Z,500
2023-04-23T14:09:36.339Z,523
2023-04-23T14:10:45.394Z,596
2023-04-23T14:11:54.685Z,669
2023-04-23T14:13:03.754Z,658
2023-04-23T14:14:12.932Z,804
2023-04-23T14:15:22.170Z,1175
2023-04-23T14:16:31.338Z,826
2023-04-23T14:17:40.530Z,691
2023-04-23T14:18:49.679Z,652
2023-04-23T14:19:58.768Z,568
2023-04-23T14:21:07.986Z,528
2023-04-23T14:22:17.243Z,556
2023-04-23T14:23:25.313Z,562
2023-04-23T14:24:34.473Z,540
2023-04-23T14:25:43.657Z,534
2023-04-23T14:26:52.922Z,506
2023-04-23T14:28:02.004Z,466
2023-04-23T14:29:11.184Z,438
2023-04-23T14:30:20.367Z,416
2023-04-23T14:31:28.542Z,410
2023-04-23T14:32:37.760Z,416
2023-04-23T14:33:45.900Z,360
2023-04-23T14:34:55.072Z,343
2023-04-23T14:36:04.248Z,337
2023-04-23T14:37:13.568Z,326
2023-04-23T14:38:22.583Z,315
2023-04-23T14:39:31.889Z,292
2023-04-23T14:40:40.929Z,281
2023-04-23T14:41:50.195Z,270
2023-04-23T14:42:59.266Z,264
2023-04-23T14:44:08.447Z,258
2023-04-23T14:45:17.621Z,253
2023-04-23T14:46:26.790Z,241
2023-04-23T14:47:35.970Z,241
2023-04-23T14:48:44.162Z,236
2023-04-23T14:49:53.323Z,236
2023-04-23T14:51:02.496Z,236
2023-04-23T14:52:11.677Z,236
2023-04-23T14:53:20.858Z,230
2023-04-23T14:54:30.081Z,230
2023-04-23T14:55:38.284Z,230
2023-04-23T14:56:46.398Z,225
2023-04-23T14:57:55.561Z,225
2023-04-23T14:59:03.766Z,213
2023-04-23T15:00:11.944Z,208
2023-04-23T15:01:20.142Z,208
2023-04-23T15:02:29.311Z,208
2023-04-23T15:03:37.493Z,208
2023-04-23T15:04:46.699Z,208
2023-04-23T15:05:55.840Z,213
2023-04-23T15:07:05.029Z,219
2023-04-23T15:08:14.194Z,219
2023-04-23T15:09:23.365Z,213
2023-04-23T15:10:32.544Z,208
2023-04-23T15:11:41.698Z,208
2023-04-23T15:12:50.877Z,208
2023-04-23T15:14:00.092Z,208
2023-04-23T15:15:09.215Z,213
2023-04-23T15:16:18.384Z,219
2023-04-23T15:17:26.580Z,219
2023-04-23T15:18:35.752Z,213
2023-04-23T15:19:44.926Z,219
2023-04-23T15:20:54.091Z,230
2023-04-23T15:22:03.344Z,230
2023-04-23T15:23:12.442Z,225
2023-04-23T15:24:21.733Z,219
2023-04-23T15:25:29.822Z,230
2023-04-23T15:26:38.042Z,219
2023-04-23T15:27:47.279Z,219
2023-04-23T15:28:56.402Z,213
2023-04-23T15:30:05.520Z,202
2023-04-23T15:31:14.862Z,191
2023-04-23T15:32:23.899Z,191
2023-04-23T15:33:33.044Z,185
2023-04-23T15:34:42.224Z,174
2023-04-23T15:35:51.401Z,168
2023-04-23T15:37:00.618Z,163
2023-04-23T15:38:09.723Z,157
2023-04-23T15:39:18.972Z,151
2023-04-23T15:40:28.097Z,151
2023-04-23T15:41:36.264Z,146
2023-04-23T15:42:45.515Z,146
2023-04-23T15:43:54.603Z,140
2023-04-23T15:45:03.769Z,140
2023-04-23T15:46:12.947Z,140
2023-04-23T15:47:22.110Z,140
2023-04-23T15:48:31.371Z,140
2023-04-23T15:49:39.626Z,146
2023-04-23T15:50:47.740Z,140
2023-04-23T15:51:56.847Z,140
2023-04-23T15:53:06.020Z,135
2023-04-23T15:54:15.245Z,135
2023-04-23T15:55:24.360Z,129
2023-04-23T15:56:33.528Z,129
2023-04-23T15:57:42.696Z,123
2023-04-23T15:58:51.867Z,123
2023-04-23T16:00:01.068Z,123
2023-04-23T16:01:10.298Z,123
2023-04-23T16:02:19.390Z,123
2023-04-23T16:03:28.567Z,123
2023-04-23T16:04:37.730Z,123
2023-04-23T16:05:46.107Z,129
2023-04-23T16:06:55.266Z,135
2023-04-23T16:08:04.487Z,135
2023-04-23T16:09:13.688Z,129
2023-04-23T16:10:22.779Z,135
2023-04-23T16:11:31.958Z,135
2023-04-23T16:12:41.099Z,129
2023-04-23T16:13:49.320Z,123
2023-04-23T16:14:57.336Z,118
2023-04-23T16:16:06.515Z,112
2023-04-23T16:17:14.833Z,112
2023-04-23T16:18:23.152Z,112
2023-04-23T16:19:31.269Z,112
2023-04-23T16:20:40.442Z,118
2023-04-23T16:21:48.636Z,118
2023-04-23T16:22:57.781Z,118
2023-04-23T16:24:06.949Z,123
2023-04-23T16:25:16.103Z,118
2023-04-23T16:26:25.309Z,118